Harding, Wisconsin
Current Conditions -  °F | °C
As of 6:55 AM on Thursday 30 Oct 2014 (Local Time) from KRRL Reporting Station
Overcast Overcast  
Wind Chill: 31°   Ceiling: 2300
Heat Index: 31°   Visibility: 10mi
Dew Point: 31°   Wind: 0mph
Humidity: 100%   Direction: NA
Pressure: 30.05"   Gusts: NA
Location:  45.2167°N, 89.8732°W
Report Text: KRRL 301155Z AUTO 00000KT 10SM BKN023 OVC110 00/00 A3005 RMK AO2 T10051005 10000 21007
Loading
Personal Weather Stations






























Interactive Weather Map
Tropical Storm Tracking
New forecast layout! Learn more

10-Day Weather Forecast

Advertisements
Track Severe Weather on mobile